NEODyS-2

Near Earth Objects - Dynamic Site
NEODyS ∴ Observatories ∴ Site 691 ∴ Obs & residuals
Contact »
691  ▹ 
OBSERVATIONS AND RESIDUALS

691-Steward Observatory, Kitt Peak-Spacewatch

Detections | Residuals | Detections & Residuals

[1-200] [201-400] [401-600] [601-800] [801-1000] [1001-1200] [1201-1400] [1401-1600] [1601-1800] [1801-2000] [2001-2200] [2201-2400] [2401-2600] [2601-2800] [2801-3000] [3001-3200] [3201-3400] [3401-3600] [3601-3800] [3801-4000] [4001-4200] [4201-4400] [4401-4600] [4601-4800] [4801-5000] [5001-5200] [5201-5400] [5401-5600] [5601-5800] [5801-6000] [6001-6200] [6201-6400] [6401-6600] [6601-6800] [6801-7000] [7001-7200] [7201-7400] [7401-7600] [7601-7800] [7801-8000] [8001-8200] [8201-8400] [8401-8600] [8601-8800] [8801-9000] [9001-9200] [9201-9400] [9401-9600] [9601-9800] [9801-10000] [10001-10200] [10201-10400] [10401-10600] [10601-10800] [10801-11000] [11001-11200] [11201-11400] [11401-11600] [11601-11800] [11801-12000] [12001-12200] [12201-12400] [12401-12600] [12601-12800] [12801-13000] [13001-13200] [13201-13400] [13401-13600] [13601-13800] [13801-14000] [14001-14200] [14201-14400] [14401-14600] [14601-14800] [14801-15000] [15001-15200] [15201-15400] [15401-15600] [15601-15800] [15801-16000] [16001-16200] [16201-16400] [16401-16600] [16601-16800] [16801-17000] [17001-17200] [17201-17400] [17401-17600] [17601-17800] [17801-18000] [18001-18200] [18201-18400] [18401-18600] [18601-18800] [18801-19000] [19001-19200] [19201-19400] [19401-19600] [19601-19800] [19801-20000] [20001-20200] [20201-20400] [20401-20600] [20601-20800] [20801-21000] [21001-21200] [21201-21400] [21401-21600] [21601-21800] [21801-22000] [22001-22200] [22201-22400] [22401-22600] [22601-22800] [22801-23000] [23001-23200] [23201-23400] [23401-23600] [23601-23800] [23801-24000] [24001-24200] [24201-24400] [24401-24600] [24601-24800] [24801-25000] [25001-25200] [25201-25400] [25401-25600] [25601-25800] [25801-26000] [26001-26200] [26201-26400] [26401-26600] [26601-26800] [26801-27000] [27001-27200] [27201-27400] [27401-27600] [27601-27800] [27801-28000] [28001-28200] [28201-28400] [28401-28600] [28601-28800] [28801-29000] [29001-29200] [29201-29400] [29401-29600] [29601-29800] [29801-30000] [30001-30200] [30201-30400] [30401-30600] [30601-30800] [30801-31000] [31001-31200] [31201-31400] [31401-31600] [31601-31800] [31801-32000] [32001-32200] [32201-32400] [32401-32600] [32601-32800] [32801-33000] [33001-33200] [33201-33400] [33401-33600] [33601-33800] [33801-34000] [34001-34200] [34201-34400] [34401-34600] [34601-34800] [34801-35000] [35001-35200] [35201-35400] [35401-35600] [35601-35800] [35801-36000] [36001-36200] [36201-36400] [36401-36600] [36601-36800] [36801-37000] [37001-37200] [37201-37400] [37401-37600] [37601-37800] [37801-38000] [38001-38200] [38201-38400] [38401-38600] [38601-38800] [38801-39000] [39001-39200] [39201-39400] [39401-39600] [39601-39800] [39801-40000] [40001-40200] [40201-40400] [40401-40600] [40601-40800] [40801-41000] [41001-41200] [41201-41400] [41401-41600] [41601-41800] [41801-42000] [42001-42200] [42201-42400] [42401-42600] [42601-42800] [42801-43000] [43001-43200] [43201-43400] [43401-43600] [43601-43800] [43801-44000] [44001-44200] [44201-44400] [44401-44600] [44601-44800] [44801-45000] [45001-45200] [45201-45400] [45401-45600] [45601-45800] [45801-46000] [46001-46200] [46201-46400] [46401-46600] [46601-46800] [46801-47000] [47001-47200] [47201-47400] [47401-47600] [47601-47800] [47801-48000] [48001-48200] [48201-48400] [48401-48600] [48601-48800] [48801-49000] [49001-49200] [49201-49400] [49401-49600] [49601-49800] [49801-50000] [50001-50200] [50201-50400] [50401-50600] [50601-50741]

Designation T Tech N Date Right Ascension Declination Apparent Magnitude Star Catalog Site code χ Used A Used M
yr-mo-day precision hr:min:sec precision rms F bias residual deg min sec precision rms F bias residual mag/col rms residual
2019JA1 O C K 2019-06-04.29592 1.000E-05 13:55:18.410 1.500E-01 0.500 F 0.273 -0.656 +00° 04' 03.20" 1.000E-01 0.500 F 0.279 -0.452 20.9 R 0.70 0.24 o 691 1.64 Yes Yes
2019KC O C K 2019-06-04.30172 1.000E-05 14:37:24.430 1.500E-01 0.500 F 0.179 -0.287 +12° 28' 00.40" 1.000E-01 0.500 F 0.160 0.296 20.6 R 0.70 -0.27 o 691 0.87 Yes Yes
2019JA1 O C K 2019-06-04.30865 1.000E-05 13:55:21.940 1.500E-01 0.500 F 0.273 0.206 +00° 04' 19.20" 1.000E-01 0.500 F 0.279 0.249 21.5 R 0.70 0.84 o 691 0.66 Yes Yes
2019JX7 O C 2019-06-04.31438 1.000E-05 15:20:42.810 1.500E-01 0.500 F 0.209 -0.128 +03° 06' 36.40" 1.000E-01 0.500 F 0.068 0.103 17.8 V 0.70 -0.18 o 691 0.33 Yes Yes
2019JX7 O C 2019-06-04.31988 1.000E-05 15:20:43.960 1.500E-01 0.500 F 0.209 -0.398 +03° 07' 22.80" 1.000E-01 0.500 F 0.068 -0.017 17.8 V 0.70 -0.18 o 691 0.80 Yes Yes
2019JX7 O C 2019-06-04.32537 1.000E-05 15:20:45.150 1.500E-01 0.500 F 0.209 -0.085 +03° 08' 09.40" 1.000E-01 0.500 F 0.068 0.138 17.9 V 0.70 -0.08 o 691 0.33 Yes Yes
2019KB4 O C K 2019-06-04.42077 1.000E-05 21:49:35.260 1.500E-01 0.500 F -0.025 -0.071 +16° 19' 59.90" 1.000E-01 0.500 F 0.344 0.248 20.1 R 0.70 -0.35 o 691 0.52 Yes Yes
2019KB4 O C K 2019-06-04.43370 1.000E-05 21:49:39.070 1.500E-01 0.500 F -0.025 0.075 +16° 20' 06.80" 1.000E-01 0.500 F 0.344 0.046 20.4 R 0.70 -0.05 o 691 0.18 Yes Yes
2019KB4 O C K 2019-06-04.44663 1.000E-05 21:49:42.880 1.500E-01 0.500 F -0.025 0.262 +16° 20' 14.00" 1.000E-01 0.500 F 0.344 0.172 19.9 R 0.70 -0.55 o 691 0.63 Yes Yes
2019LQ4 O C K 2019-06-08.23984 1.000E-05 13:56:29.800 1.500E-01 0.500 F 0.058 -0.473 -02° 14' 17.20" 1.000E-01 0.500 F 0.222 -0.587 20.0 R 0.70 -0.12 o 691 1.53 Yes Yes
2019LQ4 O C K 2019-06-08.24797 1.000E-05 13:56:28.060 1.500E-01 0.500 F 0.058 -0.179 -02° 12' 29.60" 1.000E-01 0.500 F 0.222 -0.264 20.7 R 0.70 0.58 o 691 0.65 Yes Yes
2019LQ4 O C K 2019-06-08.25607 1.000E-05 13:56:26.310 1.500E-01 0.500 F 0.058 -0.239 -02° 10' 42.40" 1.000E-01 0.500 F 0.222 -0.113 19.8 R 0.70 -0.32 o 691 0.54 Yes Yes
2019JX7 O C K 2019-06-08.27275 1.000E-05 15:39:37.270 1.500E-01 0.500 F 0.136 -0.350 +13° 29' 12.30" 1.000E-01 0.500 F 0.276 0.105 17.7 R 0.70 0.17 o 691 0.73 Yes Yes
2019JX7 O C K 2019-06-08.28453 1.000E-05 15:39:40.810 1.500E-01 0.500 F 0.136 -0.165 +13° 31' 14.00" 1.000E-01 0.500 F 0.276 -0.051 o 691 0.35 Yes No
2019JX7 O C K 2019-06-08.29632 1.000E-05 15:39:44.350 1.500E-01 0.500 F 0.136 -0.174 +13° 33' 16.20" 1.000E-01 0.500 F 0.276 0.240 17.7 R 0.70 0.17 o 691 0.60 Yes Yes
2019LF5 O C K 2019-06-08.37792 1.000E-05 16:29:17.370 1.500E-01 0.500 F 0.152 0.031 -01° 14' 11.80" 1.000E-01 0.500 F 0.312 -0.167 21.4 R 0.70 0.12 o 691 0.34 Yes Yes
2019LF5 O C K 2019-06-08.40044 1.000E-05 16:29:17.340 1.500E-01 0.500 F 0.152 -0.177 -01° 14' 37.90" 1.000E-01 0.500 F 0.312 -0.423 o 691 0.92 Yes No
2019LF5 O C K 2019-06-08.42295 1.000E-05 16:29:17.410 1.500E-01 0.500 F 0.152 0.677 -01° 15' 03.80" 1.000E-01 0.500 F 0.312 -0.453 21.7 R 0.70 0.43 o 691 1.64 Yes Yes
2015QO3 O C K 2019-06-09.17756 1.000E-05 14:00:21.320 1.500E-01 0.500 F 0.084 -0.601 +12° 45' 33.70" 1.000E-01 0.500 F 0.340 -0.099 20.2 R 0.70 -0.01 o 691 1.22 Yes Yes
2015QO3 O C K 2019-06-09.18586 1.000E-05 14:00:21.950 1.500E-01 0.500 F 0.084 -0.145 +12° 45' 13.80" 1.000E-01 0.500 F 0.340 -0.286 20.1 R 0.70 -0.11 o 691 0.65 Yes Yes
2015QO3 O C K 2019-06-09.19417 1.000E-05 14:00:22.590 1.500E-01 0.500 F 0.084 0.447 +12° 44' 54.50" 1.000E-01 0.500 F 0.340 0.150 20.0 R 0.70 -0.21 o 691 0.95 Yes Yes
2019LX4 O C H 2019-06-09.20428 1.000E-05 15:23:49.890 1.500E-01 0.500 F -0.002 0.716 -22° 34' 06.10" 1.000E-01 0.500 F 0.066 -0.183 o 691 1.48 Yes No
2019LX4 O C H 2019-06-09.21781 1.000E-05 15:23:48.110 1.500E-01 0.500 F -0.002 -0.682 -22° 33' 54.30" 1.000E-01 0.500 F 0.066 0.011 o 691 1.37 Yes No
2019LP5 O C K 2019-06-09.21974 1.000E-05 14:58:58.020 1.500E-01 0.500 F 0.299 0.567 -09° 26' 53.60" 1.000E-01 0.500 F 0.214 -0.069 21.7 R 0.70 0.58 o 691 1.19 Yes Yes
2019LX4 O C H 2019-06-09.23139 1.000E-05 15:23:46.540 1.500E-01 0.500 F -0.002 0.934 -22° 33' 43.20" 1.000E-01 0.500 F 0.066 -0.610 o 691 2.24 Yes No
2019LP5 O C K 2019-06-09.23332 1.000E-05 14:58:59.620 1.500E-01 0.500 F 0.299 0.048 -09° 26' 06.10" 1.000E-01 0.500 F 0.214 -0.206 21.0 R 0.70 -0.12 o 691 0.44 Yes Yes
2018YA3 O C K 2019-06-09.28141 1.000E-05 15:52:19.230 1.500E-01 0.500 F 0.230 0.069 -08° 51' 42.20" 1.000E-01 0.500 F 0.107 0.141 21.1 R 0.70 0.35 o 691 0.33 Yes Yes
2018YA3 O C K 2019-06-09.29340 1.000E-05 15:52:18.770 1.500E-01 0.500 F 0.230 0.222 -08° 52' 09.10" 1.000E-01 0.500 F 0.107 -0.102 21.5 R 0.70 0.75 o 691 0.49 Yes Yes
2018YA3 O C K 2019-06-09.30538 1.000E-05 15:52:18.270 1.500E-01 0.500 F 0.230 -0.272 -08° 52' 35.80" 1.000E-01 0.500 F 0.107 -0.202 21.3 R 0.70 0.55 o 691 0.69 Yes Yes
2019LC5 O C K 2019-06-09.32370 1.000E-05 17:00:44.070 1.500E-01 0.500 F 0.030 0.163 +11° 32' 16.20" 1.000E-01 0.500 F 0.270 0.826 o 691 1.70 Yes No
2019LC5 O C K 2019-06-09.33319 1.000E-05 17:00:43.020 1.500E-01 0.500 F 0.030 0.291 +11° 31' 37.00" 1.000E-01 0.500 F 0.270 0.246 o 691 0.77 Yes No
2019LC5 O C K 2019-06-09.34261 1.000E-05 17:00:41.950 1.500E-01 0.500 F 0.030 -0.020 +11° 30' 57.80" 1.000E-01 0.500 F 0.270 -0.516 o 691 1.04 Yes No
2016NH15 O C H 2019-06-10.25898 1.000E-05 16:01:15.200 1.500E-01 0.500 F 0.277 0.079 -26° 00' 29.80" 1.000E-01 0.500 F 0.342 0.698 o 691 1.41 Yes No
2016NH15 O C H 2019-06-10.26892 1.000E-05 16:01:14.650 1.500E-01 0.500 F 0.277 0.077 -26° 00' 23.40" 1.000E-01 0.500 F 0.342 0.083 o 691 0.23 Yes No
2016NH15 O C H 2019-06-10.27883 1.000E-05 16:01:14.080 1.500E-01 0.500 F 0.277 -0.222 -26° 00' 16.50" 1.000E-01 0.500 F 0.342 -0.044 20.6 R 0.70 0.58 o 691 0.46 Yes Yes
2010NA O C K 2019-06-10.28136 1.000E-05 16:38:11.890 1.500E-01 0.500 F 0.036 -0.162 -02° 05' 39.30" 1.000E-01 0.500 F 0.087 0.142 20.5 R 0.70 0.16 o 691 0.43 Yes Yes
2014MC55 O C H 2019-06-10.28653 1.000E-05 16:52:21.300 1.500E-01 0.500 F -0.111 -0.415 -16° 36' 41.00" 1.000E-01 0.500 F 0.331 -2.098 19.6 R 0.70 -0.16 o 691 4.24 No Yes
2010NA O C K 2019-06-10.28800 1.000E-05 16:38:10.710 1.500E-01 0.500 F 0.036 0.103 -02° 05' 31.30" 1.000E-01 0.500 F 0.087 0.093 20.9 R 0.70 0.56 o 691 0.28 Yes Yes
2014MC55 O C H 2019-06-10.29316 1.000E-05 16:52:20.390 1.500E-01 0.500 F -0.111 -0.137 -16° 36' 25.00" 1.000E-01 0.500 F 0.331 0.023 19.9 R 0.70 0.14 o 691 0.28 Yes Yes
2010NA O C K 2019-06-10.29462 1.000E-05 16:38:09.500 1.500E-01 0.500 F 0.036 -0.132 -02° 05' 23.80" 1.000E-01 0.500 F 0.087 -0.434 20.5 R 0.70 0.16 o 691 0.91 Yes Yes
2014MC55 O C H 2019-06-10.29978 1.000E-05 16:52:19.470 1.500E-01 0.500 F -0.111 -0.023 -16° 36' 11.10" 1.000E-01 0.500 F 0.331 0.061 19.9 R 0.70 0.14 o 691 0.13 Yes Yes
2019KU5 O C H 2019-06-11.17450 1.000E-05 15:13:20.950 1.500E-01 0.500 F 0.399 -0.297 -27° 28' 17.00" 1.000E-01 0.500 F 0.387 -0.868 19.2 R 0.70 0.32 o 691 1.84 Yes Yes
2019KU5 O C H 2019-06-11.18087 1.000E-05 15:13:19.380 1.500E-01 0.500 F 0.399 0.001 -27° 27' 43.00" 1.000E-01 0.500 F 0.387 0.151 18.5 R 0.70 -0.38 o 691 0.30 Yes Yes
2019KU5 O C H 2019-06-11.18724 1.000E-05 15:13:17.850 1.500E-01 0.500 F 0.399 0.837 -27° 27' 10.00" 1.000E-01 0.500 F 0.387 0.153 18.8 R 0.70 -0.08 o 691 1.71 Yes Yes
2000EU70 O C H 2019-06-11.42776 1.000E-05 20:09:08.120 1.500E-01 0.500 F 0.023 -0.254 -00° 09' 58.00" 1.000E-01 0.500 F 0.179 0.034 o 691 0.52 Yes No
2000EU70 O C H 2019-06-11.43260 1.000E-05 20:09:08.010 1.500E-01 0.500 F 0.023 -0.086 -00° 09' 54.90" 1.000E-01 0.500 F 0.179 0.728 o 691 1.48 Yes No
2019KU5 O C K 2019-06-12.17039 1.000E-05 15:09:24.100 1.500E-01 0.500 F 0.261 -0.014 -26° 01' 30.20" 1.000E-01 0.500 F 0.392 0.156 o 691 0.32 Yes No
2019KU5 O C K 2019-06-12.17401 1.000E-05 15:09:23.220 1.500E-01 0.500 F 0.261 -0.042 -26° 01' 11.20" 1.000E-01 0.500 F 0.392 0.174 o 691 0.36 Yes No
2019KU5 O C K 2019-06-12.17763 1.000E-05 15:09:22.340 1.500E-01 0.500 F 0.261 -0.070 -26° 00' 52.30" 1.000E-01 0.500 F 0.392 0.087 o 691 0.22 Yes No
2012HR69 O C 2019-06-12.37675 1.000E-05 21:18:06.560 1.500E-01 0.500 F -0.053 0.152 -03° 43' 07.50" 1.000E-01 0.500 F 0.281 0.096 20.1 V 0.70 -0.01 o 691 0.37 Yes Yes
2012HR69 O C 2019-06-12.38971 1.000E-05 21:18:09.290 1.500E-01 0.500 F -0.053 0.069 -03° 43' 02.90" 1.000E-01 0.500 F 0.281 -0.032 20.5 V 0.70 0.39 o 691 0.16 Yes Yes
2012HR69 O C 2019-06-12.40266 1.000E-05 21:18:12.010 1.500E-01 0.500 F -0.053 -0.067 -03° 42' 58.00" 1.000E-01 0.500 F 0.281 0.140 20.2 V 0.70 0.09 o 691 0.32 Yes Yes
2019KB4 O C K 2019-06-12.45555 1.000E-05 22:32:07.380 1.500E-01 0.500 F -0.047 0.039 +17° 11' 10.30" 1.000E-01 0.500 F 0.354 0.510 o 691 1.03 Yes No
2019KB4 O C K 2019-06-12.45917 1.000E-05 22:32:08.570 1.500E-01 0.500 F -0.047 0.011 +17° 11' 10.50" 1.000E-01 0.500 F 0.354 -0.096 o 691 0.20 Yes No
2019KB4 O C K 2019-06-12.46278 1.000E-05 22:32:09.760 1.500E-01 0.500 F -0.047 0.033 +17° 11' 11.90" 1.000E-01 0.500 F 0.354 0.502 o 691 1.01 Yes No
2019LF1 O C K 2019-06-20.16703 1.000E-05 17:01:52.220 1.500E-01 0.500 F 0.020 -0.125 +01° 05' 47.20" 1.000E-01 0.500 F 0.182 0.148 20.5 R 0.70 -0.20 o 691 0.39 Yes Yes
2019LF1 O C K 2019-06-20.17194 1.000E-05 17:01:52.250 1.500E-01 0.500 F 0.020 0.754 +01° 05' 37.90" 1.000E-01 0.500 F 0.182 0.384 20.3 R 0.70 -0.40 o 691 1.71 Yes Yes
2019LF1 O C K 2019-06-20.17684 1.000E-05 17:01:52.170 1.500E-01 0.500 F 0.020 -0.004 +01° 05' 27.60" 1.000E-01 0.500 F 0.182 -0.398 20.8 R 0.70 0.10 o 691 0.80 Yes Yes
2019LG5 O C K 2019-06-20.22018 1.000E-05 16:40:44.940 1.500E-01 0.500 F 0.079 -0.514 -03° 12' 10.20" 1.000E-01 0.500 F 0.102 -0.010 21.5 R 0.70 0.62 o 691 1.03 Yes Yes
2019JY4 O C H 2019-06-20.22742 1.000E-05 16:17:00.720 1.500E-01 0.500 F 0.175 0.219 +06° 41' 54.90" 1.000E-01 0.500 F 0.177 -0.119 19.8 R 0.70 0.00 o 691 0.50 Yes Yes
2019KX3 O C K 2019-06-20.23010 1.000E-05 16:25:11.940 1.500E-01 0.500 F 0.101 -0.201 +00° 53' 07.40" 1.000E-01 0.500 F 0.282 0.105 21.5 R 0.70 -0.22 o 691 0.47 Yes Yes
2019LG5 O C K 2019-06-20.24809 1.000E-05 16:40:42.740 1.500E-01 0.500 F 0.079 -0.095 -03° 12' 02.20" 1.000E-01 0.500 F 0.102 0.614 20.8 R 0.70 -0.08 o 691 1.25 Yes Yes
2019JY4 O C H 2019-06-20.25533 1.000E-05 16:17:00.760 1.500E-01 0.500 F 0.175 0.240 +06° 41' 51.50" 1.000E-01 0.500 F 0.177 -0.303 20.0 R 0.70 0.20 o 691 0.77 Yes Yes
2019KX3 O C K 2019-06-20.25802 1.000E-05 16:25:12.060 1.500E-01 0.500 F 0.101 -0.234 +00° 53' 58.50" 1.000E-01 0.500 F 0.282 0.420 21.1 R 0.70 -0.62 o 691 1.00 Yes Yes
2019LG5 O C K 2019-06-20.27619 1.000E-05 16:40:40.510 1.500E-01 0.500 F 0.079 0.126 -03° 11' 55.00" 1.000E-01 0.500 F 0.102 0.383 21.1 R 0.70 0.22 o 691 0.81 Yes Yes
2019JY4 O C H 2019-06-20.28343 1.000E-05 16:17:00.780 1.500E-01 0.500 F 0.175 -0.108 +06° 41' 48.60" 1.000E-01 0.500 F 0.177 0.138 19.5 R 0.70 -0.30 o 691 0.35 Yes Yes
2019KX3 O C K 2019-06-20.28612 1.000E-05 16:25:12.200 1.500E-01 0.500 F 0.101 -0.047 +00° 54' 49.20" 1.000E-01 0.500 F 0.282 0.026 21.3 R 0.70 -0.42 o 691 0.11 Yes Yes
2014MC55 O C K 2019-06-20.30394 1.000E-05 16:30:03.910 1.500E-01 0.500 F 0.129 -0.253 -10° 40' 20.40" 1.000E-01 0.500 F 0.175 0.195 20.5 R 0.70 0.47 o 691 0.64 Yes Yes
2014MC55 O C K 2019-06-20.36659 1.000E-05 16:29:55.730 1.500E-01 0.500 F 0.129 -0.156 -10° 38' 06.70" 1.000E-01 0.500 F 0.175 0.106 20.5 R 0.70 0.47 o 691 0.38 Yes Yes
2006OH15 O C K 2019-06-20.40120 1.000E-05 21:07:53.590 1.500E-01 0.612 F 0.082 -0.035 +21° 31' 49.80" 1.000E-01 0.612 F 0.263 0.250 19.5 R 0.70 0.10 o 691 0.41 Yes Yes
2006OH15 O C 2019-06-20.40120 1.000E-05 21:07:53.570 1.500E-01 0.612 F 0.082 -0.314 +21° 31' 49.40" 1.000E-01 0.612 F 0.263 -0.150 19.9 V 0.70 0.10 o 691 0.57 Yes Yes
2006OH15 O C K 2019-06-20.42681 1.000E-05 21:07:52.270 1.500E-01 0.612 F 0.082 -0.814 +21° 30' 45.80" 1.000E-01 0.612 F 0.263 -0.130 18.9 R 0.70 -0.50 o 691 1.35 Yes Yes
2006OH15 O C 2019-06-20.43307 1.000E-05 21:07:52.040 1.500E-01 0.612 F 0.041 0.344 +21° 30' 30.30" 1.000E-01 0.612 F 0.251 -0.037 20.1 V 0.70 0.30 o 691 0.57 Yes Yes
2006OH15 O C K 2019-06-20.44705 1.000E-05 21:07:51.300 1.500E-01 0.612 F 0.041 -0.309 +21° 29' 55.70" 1.000E-01 0.612 F 0.251 0.202 19.4 R 0.70 0.00 o 691 0.60 Yes Yes
2006OH15 O C 2019-06-20.45957 1.000E-05 21:07:50.710 1.500E-01 0.612 F 0.041 0.129 +21° 29' 23.80" 1.000E-01 0.612 F 0.251 -0.448 19.9 V 0.70 0.10 o 691 0.76 Yes Yes
2014QO296 O C K 2019-06-21.21243 1.000E-05 11:50:22.690 1.500E-01 0.500 F 0.217 0.211 +28° 13' 38.10" 1.000E-01 0.500 F 0.253 0.348 20.6 R 0.70 0.11 o 691 0.84 Yes Yes
2014QO296 O C K 2019-06-21.21898 1.000E-05 11:50:25.190 1.500E-01 0.500 F 0.217 0.147 +28° 13' 36.40" 1.000E-01 0.500 F 0.253 0.219 20.6 R 0.70 0.11 o 691 0.54 Yes Yes
2014QO296 O C K 2019-06-21.22552 1.000E-05 11:50:27.740 1.500E-01 0.500 F 0.197 0.784 +28° 13' 34.70" 1.000E-01 0.500 F 0.236 0.115 20.9 R 0.70 0.41 o 691 1.63 Yes Yes
2019JA1 O C K 2019-06-21.23606 1.000E-05 15:16:53.170 1.500E-01 0.500 F 0.170 -0.012 +03° 22' 16.20" 1.000E-01 0.500 F 0.119 -0.067 21.6 R 0.70 0.58 o 691 0.14 Yes Yes
2019LV1 O C K 2019-06-21.24314 1.000E-05 15:25:22.760 1.500E-01 0.500 F 0.186 -0.142 +05° 00' 10.90" 1.000E-01 0.500 F 0.181 0.054 19.5 R 0.70 0.00 o 691 0.31 Yes Yes
2019LX4 O C K 2019-06-21.24846 1.000E-05 15:04:00.960 1.500E-01 0.500 F 0.118 -0.192 -19° 29' 19.60" 1.000E-01 0.500 F -0.068 -0.051 20.9 R 0.70 0.46 o 691 0.40 Yes Yes
2019JA1 O C K 2019-06-21.25499 1.000E-05 15:16:57.920 1.500E-01 0.500 F 0.170 0.058 +03° 22' 19.90" 1.000E-01 0.500 F 0.119 -0.148 22.3 R 0.70 1.28 o 691 0.33 Yes Yes
2019LV1 O C K 2019-06-21.26206 1.000E-05 15:25:16.730 1.500E-01 0.500 F 0.186 0.453 +05° 02' 45.90" 1.000E-01 0.500 F 0.181 -0.041 19.3 R 0.70 -0.20 o 691 0.92 Yes Yes
2019LX4 O C K 2019-06-21.26730 1.000E-05 15:03:59.290 1.500E-01 0.500 F 0.118 0.433 -19° 29' 02.50" 1.000E-01 0.500 F -0.068 -1.060 20.0 R 0.70 -0.44 o 691 2.30 Yes Yes
2019JA1 O C K 2019-06-21.27384 1.000E-05 15:17:02.700 1.500E-01 0.500 F 0.170 0.645 +03° 22' 23.30" 1.000E-01 0.500 F 0.119 -0.453 21.8 R 0.70 0.78 o 691 1.65 Yes Yes
2019LV1 O C K 2019-06-21.28091 1.000E-05 15:25:10.720 1.500E-01 0.500 F 0.186 0.233 +05° 05' 20.70" 1.000E-01 0.500 F 0.181 -0.039 19.4 R 0.70 -0.10 o 691 0.48 Yes Yes
2019LX4 O C K 2019-06-21.28617 1.000E-05 15:03:57.560 1.500E-01 0.500 F 0.118 0.054 -19° 28' 42.80" 1.000E-01 0.500 F -0.068 0.390 20.8 R 0.70 0.36 o 691 0.79 Yes Yes
2019LF5 O C K 2019-06-21.30134 1.000E-05 16:35:06.480 1.500E-01 0.500 F 0.092 0.448 -08° 04' 39.70" 1.000E-01 0.500 F 0.205 0.068 20.3 R 0.70 -0.28 o 691 0.91 Yes Yes
2019LF5 O C K 2019-06-21.32058 1.000E-05 16:35:07.110 1.500E-01 0.500 F 0.092 0.039 -08° 05' 33.50" 1.000E-01 0.500 F 0.205 0.444 21.0 R 0.70 0.42 o 691 0.90 Yes Yes
2019LF5 O C K 2019-06-21.33982 1.000E-05 16:35:07.820 1.500E-01 0.500 F 0.092 0.531 -08° 06' 28.10" 1.000E-01 0.500 F 0.205 0.000 20.9 R 0.70 0.32 o 691 1.07 Yes Yes
2009QZ6 O C 2019-06-21.36226 1.000E-05 22:45:31.270 1.500E-01 0.500 F -0.075 -0.394 +04° 46' 12.90" 1.000E-01 0.500 F 0.246 0.195 20.4 V 0.70 0.66 o 691 0.88 Yes Yes
2009QZ6 O C 2019-06-21.37804 1.000E-05 22:45:31.670 1.500E-01 0.500 F -0.075 -0.400 +04° 46' 41.30" 1.000E-01 0.500 F 0.246 -0.204 20.4 V 0.70 0.66 o 691 0.90 Yes Yes
2009QZ6 O C 2019-06-21.39379 1.000E-05 22:45:32.080 1.500E-01 0.500 F -0.075 -0.164 +04° 47' 10.20" 1.000E-01 0.500 F 0.246 -0.043 20.1 V 0.70 0.36 o 691 0.34 Yes Yes
2019KB4 O C K 2019-06-21.40259 1.000E-05 23:24:50.460 1.500E-01 0.500 F -0.225 -0.113 +17° 08' 02.20" 1.000E-01 0.500 F 0.338 0.021 20.1 R 0.70 -0.11 o 691 0.23 Yes Yes
2019KB4 O C K 2019-06-21.44277 1.000E-05 23:25:05.030 1.500E-01 0.500 F -0.225 -0.424 +17° 07' 52.10" 1.000E-01 0.500 F 0.338 -0.150 20.0 R 0.70 -0.21 o 691 0.91 Yes Yes
2019LJ1 O C K 2019-06-22.16214 1.000E-05 12:04:24.050 1.500E-01 0.500 F 0.314 0.812 -07° 34' 54.90" 1.000E-01 0.500 F 0.047 0.111 21.4 R 0.70 0.04 o 691 1.82 Yes Yes
2019LJ1 O C K 2019-06-22.17282 1.000E-05 12:04:16.200 1.500E-01 0.500 F 0.314 0.198 -07° 33' 57.30" 1.000E-01 0.500 F 0.047 -0.083 21.9 R 0.70 0.54 o 691 0.49 Yes Yes
2019LJ1 O C K 2019-06-22.18348 1.000E-05 12:04:08.370 1.500E-01 0.500 F 0.314 -0.438 -07° 32' 59.10" 1.000E-01 0.500 F 0.047 0.376 21.1 R 0.70 -0.26 o 691 1.32 Yes Yes
2015QO3 O C K 2019-06-22.19521 1.000E-05 14:15:07.830 1.500E-01 0.500 F 0.230 -0.344 +06° 07' 06.00" 1.000E-01 0.500 F 0.300 -0.072 21.0 R 0.70 -0.14 o 691 0.71 Yes Yes
2015QO3 O C K 2019-06-22.20764 1.000E-05 14:15:08.580 1.500E-01 0.500 F 0.230 -0.118 +06° 06' 48.10" 1.000E-01 0.500 F 0.300 -0.033 21.3 R 0.70 0.15 o 691 0.25 Yes Yes
2015QO3 O C K 2019-06-22.21996 1.000E-05 14:15:09.310 1.500E-01 0.500 F 0.230 -0.110 +06° 06' 30.60" 1.000E-01 0.500 F 0.300 0.245 21.3 R 0.70 0.15 o 691 0.54 Yes Yes
2019LX4 O C K 2019-06-22.23568 1.000E-05 15:02:43.820 1.500E-01 0.500 F 0.118 0.277 -19° 13' 55.50" 1.000E-01 0.500 F -0.068 -0.111 o 691 0.60 Yes No
2014HO4 O C K 2019-06-22.23908 1.000E-05 14:57:03.550 1.500E-01 0.500 F 0.210 0.357 -20° 48' 57.80" 1.000E-01 0.500 F 0.045 0.524 22.7 R 0.70 1.59 o 691 1.27 Yes Yes
2019LX4 O C K 2019-06-22.24640 1.000E-05 15:02:42.860 1.500E-01 0.500 F 0.118 0.002 -19° 13' 45.10" 1.000E-01 0.500 F -0.068 0.069 20.9 R 0.70 0.45 o 691 0.14 Yes Yes
2014HO4 O C K 2019-06-22.24980 1.000E-05 14:57:02.330 1.500E-01 0.500 F 0.210 -0.373 -20° 49' 02.90" 1.000E-01 0.500 F 0.045 -0.385 22.3 R 0.70 1.19 o 691 1.08 Yes Yes
2019LX4 O C K 2019-06-22.25707 1.000E-05 15:02:41.970 1.500E-01 0.500 F 0.118 0.605 -19° 13' 34.90" 1.000E-01 0.500 F -0.068 0.060 20.1 R 0.70 -0.35 o 691 1.22 Yes Yes
2014HO4 O C K 2019-06-22.26047 1.000E-05 14:57:01.190 1.500E-01 0.500 F 0.210 -0.081 -20° 49' 06.30" 1.000E-01 0.500 F 0.045 0.374 o 691 0.77 Yes No
2019AH11 O C K 2019-06-23.16012 1.000E-05 11:12:55.940 1.500E-01 0.500 F 0.078 0.229 +11° 17' 18.50" 1.000E-01 0.500 F 0.150 -0.256 22.2 R 0.70 1.03 o 691 0.70 Yes Yes
2019AH11 O C K 2019-06-23.16945 1.000E-05 11:12:58.200 1.500E-01 0.500 F 0.078 0.391 +11° 17' 15.20" 1.000E-01 0.500 F 0.150 -0.438 22.1 R 0.70 0.93 o 691 1.20 Yes Yes
2019AH11 O C K 2019-06-23.17876 1.000E-05 11:13:00.400 1.500E-01 0.500 F 0.078 -0.277 +11° 17' 12.80" 1.000E-01 0.500 F 0.150 0.277 22.7 R 0.70 1.53 o 691 0.80 Yes Yes
2008SR1 O C K 2019-06-23.19428 1.000E-05 11:26:25.450 1.500E-01 0.500 F 0.043 -0.082 +27° 57' 34.50" 1.000E-01 0.500 F 0.251 0.328 22.5 R 0.70 0.92 o 691 0.68 Yes Yes
2016KE O C K 2019-06-23.20291 1.000E-05 12:23:17.310 1.500E-01 0.500 F 0.125 -0.029 +28° 36' 10.50" 1.000E-01 0.500 F 0.288 -0.466 o 691 0.97 Yes No
2008SR1 O C K 2019-06-23.21569 1.000E-05 11:26:27.240 1.500E-01 0.500 F 0.043 0.233 +27° 57' 43.60" 1.000E-01 0.500 F 0.251 0.271 21.2 R 0.70 -0.38 o 691 0.72 Yes Yes
2016KE O C K 2019-06-23.22434 1.000E-05 12:23:21.360 1.500E-01 0.500 F 0.125 -0.531 +28° 35' 22.90" 1.000E-01 0.500 F 0.288 -1.067 o 691 2.51 Yes No
2008SR1 O C K 2019-06-23.23710 1.000E-05 11:26:29.020 1.500E-01 0.500 F 0.043 0.223 +27° 57' 52.50" 1.000E-01 0.500 F 0.251 0.053 21.6 R 0.70 0.02 o 691 0.46 Yes Yes
2016KE O C K 2019-06-23.24575 1.000E-05 12:23:25.510 1.500E-01 0.500 F 0.125 0.231 +28° 34' 36.70" 1.000E-01 0.500 F 0.288 -0.268 o 691 0.74 Yes No
2019LX4 O C K 2019-06-23.30040 1.000E-05 15:01:23.860 1.500E-01 0.500 F 0.083 -0.167 -18° 57' 21.30" 1.000E-01 0.500 F 0.036 -0.280 o 691 0.66 Yes No
2019LX4 O C K 2019-06-23.30609 1.000E-05 15:01:23.420 1.500E-01 0.500 F 0.083 0.140 -18° 57' 15.10" 1.000E-01 0.500 F 0.036 0.414 o 691 0.88 Yes No
2019LX4 O C K 2019-06-23.31179 1.000E-05 15:01:23.010 1.500E-01 0.500 F 0.083 0.858 -18° 57' 09.70" 1.000E-01 0.500 F 0.036 0.291 o 691 1.82 Yes No
2019LG1 O C K 2019-06-24.15342 1.000E-05 11:43:51.660 1.500E-01 0.500 F 0.326 -0.104 -02° 51' 05.20" 1.000E-01 0.500 F 0.131 -0.265 22.3 R 0.70 0.58 o 691 0.58 Yes Yes
2019LG1 O C K 2019-06-24.16863 1.000E-05 11:43:53.140 1.500E-01 0.500 F 0.326 -0.023 -02° 50' 44.80" 1.000E-01 0.500 F 0.131 -0.279 22.2 R 0.70 0.48 o 691 0.57 Yes Yes
2019LG1 O C K 2019-06-24.18384 1.000E-05 11:43:54.660 1.500E-01 0.500 F 0.326 0.567 -02° 50' 23.50" 1.000E-01 0.500 F 0.131 0.607 21.8 R 0.70 0.08 o 691 1.68 Yes Yes
2016KE O C K 2019-06-24.20044 1.000E-05 12:26:29.220 1.500E-01 0.500 F 0.041 -0.072 +27° 59' 54.60" 1.000E-01 0.500 F 0.208 0.359 22.5 R 0.70 0.85 o 691 0.75 Yes Yes
2016KE O C K 2019-06-24.21366 1.000E-05 12:26:31.760 1.500E-01 0.500 F 0.041 0.424 +27° 59' 25.50" 1.000E-01 0.500 F 0.208 0.409 22.3 R 0.70 0.65 o 691 1.26 Yes Yes
2016KE O C K 2019-06-24.22688 1.000E-05 12:26:34.270 1.500E-01 0.500 F 0.041 0.485 +27° 58' 55.40" 1.000E-01 0.500 F 0.208 -0.524 o 691 1.49 Yes No
2019LX4 O C 2019-06-24.24405 1.000E-05 15:00:17.780 1.500E-01 0.500 F 0.083 -1.365 -18° 42' 47.30" 1.000E-01 0.500 F 0.036 0.903 20.8 V 0.70 -0.08 o 691 3.26 No Yes
2019LA6 O C K 2019-06-24.25114 1.000E-05 15:26:44.440 1.500E-01 0.500 F 0.167 0.221 -19° 10' 44.70" 1.000E-01 0.500 F -0.124 0.923 o 691 1.90 Yes No
2019LX4 O C 2019-06-24.26776 1.000E-05 15:00:15.960 1.500E-01 0.500 F 0.083 -0.505 -18° 42' 25.40" 1.000E-01 0.500 F 0.036 0.299 21.1 V 0.70 0.22 o 691 1.18 Yes Yes
2019LA6 O C K 2019-06-24.27260 1.000E-05 15:26:43.670 1.500E-01 0.500 F 0.167 -0.007 -19° 10' 25.40" 1.000E-01 0.500 F -0.124 0.263 o 691 0.53 Yes No
2019LX4 O C 2019-06-24.29146 1.000E-05 15:00:14.100 1.500E-01 0.500 F 0.083 -0.575 -18° 42' 03.20" 1.000E-01 0.500 F 0.036 -0.157 21.1 V 0.70 0.22 o 691 1.20 Yes Yes
2019LA6 O C K 2019-06-24.29406 1.000E-05 15:26:42.950 1.500E-01 0.500 F 0.167 0.192 -19° 10' 05.10" 1.000E-01 0.500 F -0.124 0.451 o 691 0.98 Yes No
2019JA1 O C K 2019-06-24.31037 1.000E-05 15:30:30.680 1.500E-01 0.500 F 0.142 -0.355 +03° 28' 34.00" 1.000E-01 0.500 F 0.096 -0.420 o 691 1.16 Yes No
2019LG5 O C H 2019-06-24.31484 1.000E-05 16:35:43.860 1.500E-01 0.500 F 0.073 0.088 -02° 57' 07.70" 1.000E-01 0.500 F 0.140 0.021 o 691 0.18 Yes No
2019LF5 O C K 2019-06-24.31662 1.000E-05 16:38:07.700 1.500E-01 0.500 F -0.179 0.348 -10° 40' 24.70" 1.000E-01 0.500 F 0.124 0.277 20.9 R 0.70 0.49 o 691 0.90 Yes Yes
2019JA1 O C K 2019-06-24.32071 1.000E-05 15:30:33.270 1.500E-01 0.500 F 0.142 0.432 +03° 28' 34.60" 1.000E-01 0.500 F 0.096 -0.142 o 691 0.96 Yes No
2019LG5 O C H 2019-06-24.32513 1.000E-05 16:35:43.040 1.500E-01 0.500 F 0.073 -0.460 -02° 57' 05.80" 1.000E-01 0.500 F 0.140 0.109 o 691 0.95 Yes No
2019LF5 O C K 2019-06-24.32692 1.000E-05 16:38:08.200 1.500E-01 0.500 F -0.179 -0.107 -10° 40' 59.70" 1.000E-01 0.500 F 0.124 -0.139 20.5 R 0.70 0.09 o 691 0.35 Yes Yes
2019JA1 O C K 2019-06-24.33100 1.000E-05 15:30:35.860 1.500E-01 0.500 F 0.142 1.266 +03° 28' 35.00" 1.000E-01 0.500 F 0.096 -0.049 o 691 2.67 Yes No
2019LG5 O C H 2019-06-24.33542 1.000E-05 16:35:42.240 1.500E-01 0.500 F 0.073 -0.734 -02° 57' 03.40" 1.000E-01 0.500 F 0.140 0.697 o 691 2.03 Yes No
2019LF5 O C K 2019-06-24.33721 1.000E-05 16:38:08.730 1.500E-01 0.500 F -0.179 -0.215 -10° 41' 34.00" 1.000E-01 0.500 F 0.124 0.099 20.8 R 0.70 0.39 o 691 0.48 Yes Yes
2019LF1 O C 2019-06-24.34965 1.000E-05 17:02:11.860 1.500E-01 0.500 F -0.016 0.287 -01° 20' 21.80" 1.000E-01 0.500 F 0.088 0.311 20.9 V 0.70 -0.12 o 691 0.85 Yes Yes
2019LF1 O C 2019-06-24.36175 1.000E-05 17:02:11.840 1.500E-01 0.500 F -0.016 -0.004 -01° 20' 49.10" 1.000E-01 0.500 F 0.088 0.170 20.7 V 0.70 -0.32 o 691 0.34 Yes Yes
2019LF1 O C 2019-06-24.37377 1.000E-05 17:02:11.840 1.500E-01 0.500 F -0.016 -0.079 -01° 21' 16.10" 1.000E-01 0.500 F 0.088 0.157 20.6 V 0.70 -0.42 o 691 0.36 Yes Yes
2019KR5 O C K 2019-06-24.38511 1.000E-05 20:01:51.840 1.500E-01 0.500 F -0.072 0.430 -21° 39' 49.70" 1.000E-01 0.500 F 0.021 -0.302 o 691 1.14 Yes No
2019KR5 O C K 2019-06-24.39689 1.000E-05 20:01:51.420 1.500E-01 0.500 F -0.072 0.121 -21° 39' 42.30" 1.000E-01 0.500 F 0.021 -0.197 o 691 0.50 Yes No
2019KR5 O C K 2019-06-24.40867 1.000E-05 20:01:51.010 1.500E-01 0.500 F -0.072 -0.049 -21° 39' 34.40" 1.000E-01 0.500 F 0.021 0.367 o 691 0.79 Yes No
2019LX4 O C K 2019-06-25.19908 1.000E-05 14:59:14.600 1.500E-01 0.500 F 0.083 -0.530 -18° 28' 09.60" 1.000E-01 0.500 F 0.036 0.272 20.8 R 0.70 0.31 o 691 1.20 Yes Yes
2019LA6 O C K 2019-06-25.20617 1.000E-05 15:26:25.450 1.500E-01 0.500 F 0.141 0.331 -18° 56' 33.00" 1.000E-01 0.500 F -0.065 -0.179 22.5 R 0.70 0.89 o 691 0.76 Yes Yes
2019LX4 O C K 2019-06-25.22347 1.000E-05 14:59:12.780 1.500E-01 0.500 F 0.083 0.141 -18° 27' 47.00" 1.000E-01 0.500 F 0.036 0.220 20.3 R 0.70 -0.19 o 691 0.52 Yes Yes
2019LA6 O C K 2019-06-25.23056 1.000E-05 15:26:24.620 1.500E-01 0.500 F 0.141 -0.500 -18° 56' 10.50" 1.000E-01 0.500 F -0.065 0.607 22.4 R 0.70 0.79 o 691 1.58 Yes Yes
2019LX4 O C K 2019-06-25.24787 1.000E-05 14:59:10.890 1.500E-01 0.500 F 0.083 -0.394 -18° 27' 24.10" 1.000E-01 0.500 F 0.036 0.267 20.8 R 0.70 0.31 o 691 0.96 Yes Yes
2019LA6 O C K 2019-06-25.25496 1.000E-05 15:26:23.910 1.500E-01 0.500 F 0.141 0.178 -18° 55' 48.90" 1.000E-01 0.500 F -0.065 0.272 21.8 R 0.70 0.19 o 691 0.65 Yes Yes
2019KK2 O C K 2019-06-25.27620 1.000E-05 13:53:24.390 1.500E-01 0.500 F 0.234 -0.075 +21° 13' 00.50" 1.000E-01 0.500 F 0.241 -0.144 21.7 R 0.70 0.08 o 691 0.35 Yes Yes
2019KK2 O C K 2019-06-25.28863 1.000E-05 13:53:27.290 1.500E-01 0.500 F 0.234 1.103 +21° 13' 17.30" 1.000E-01 0.500 F 0.241 0.442 21.0 R 0.70 -0.62 o 691 2.59 Yes Yes
2019KK2 O C K 2019-06-25.30106 1.000E-05 13:53:30.020 1.500E-01 0.500 F 0.234 -0.177 +21° 13' 33.10" 1.000E-01 0.500 F 0.241 0.059 21.5 R 0.70 -0.12 o 691 0.41 Yes Yes
2019LF5 O C K 2019-06-25.33870 1.000E-05 16:39:22.020 1.500E-01 0.500 F -0.204 0.163 -11° 39' 44.00" 1.000E-01 0.500 F 0.129 0.247 20.5 R 0.70 0.14 o 691 0.60 Yes Yes
2019LG5 O C K 2019-06-25.34313 1.000E-05 16:34:30.750 1.500E-01 0.500 F 0.073 0.303 -02° 54' 20.60" 1.000E-01 0.500 F 0.140 0.052 o 691 0.62 Yes No
2019LF5 O C K 2019-06-25.34941 1.000E-05 16:39:22.640 1.500E-01 0.500 F -0.204 -0.141 -11° 40' 22.20" 1.000E-01 0.500 F 0.129 0.068 20.8 R 0.70 0.45 o 691 0.32 Yes Yes
2019LG5 O C K 2019-06-25.35384 1.000E-05 16:34:29.940 1.500E-01 0.500 F 0.073 0.108 -02° 54' 18.90" 1.000E-01 0.500 F 0.140 0.115 o 691 0.32 Yes No
2019LF5 O C K 2019-06-25.36012 1.000E-05 16:39:23.270 1.500E-01 0.500 F -0.204 -0.443 -11° 41' 00.50" 1.000E-01 0.500 F 0.129 -0.223 20.3 R 0.70 -0.05 o 691 1.00 Yes Yes
2019LG5 O C K 2019-06-25.36455 1.000E-05 16:34:29.160 1.500E-01 0.500 F 0.073 0.323 -02° 54' 17.30" 1.000E-01 0.500 F 0.140 0.078 o 691 0.67 Yes No
2019LF1 O C K 2019-06-25.37252 1.000E-05 17:02:21.430 1.500E-01 0.500 F -0.024 0.135 -01° 59' 16.30" 1.000E-01 0.500 F 0.139 -0.231 20.7 R 0.70 0.09 o 691 0.54 Yes Yes
2019LF1 O C K 2019-06-25.37719 1.000E-05 17:02:21.430 1.500E-01 0.500 F -0.024 -0.053 -01° 59' 27.50" 1.000E-01 0.500 F 0.139 -0.627 20.2 R 0.70 -0.41 o 691 1.27 Yes Yes
2019LF1 O C K 2019-06-25.38185 1.000E-05 17:02:21.440 1.500E-01 0.500 F -0.024 -0.106 -01° 59' 37.70" 1.000E-01 0.500 F 0.139 -0.045 20.9 R 0.70 0.29 o 691 0.23 Yes Yes
2019KX3 O C K 2019-06-25.38712 1.000E-05 16:27:04.430 1.500E-01 0.500 F 0.109 0.442 +03° 27' 22.30" 1.000E-01 0.500 F 0.208 0.172 o 691 0.98 Yes No
2019KX3 O C K 2019-06-25.39853 1.000E-05 16:27:04.670 1.500E-01 0.500 F 0.109 0.041 +03° 27' 42.00" 1.000E-01 0.500 F 0.208 -0.152 o 691 0.33 Yes No
2019KX3 O C K 2019-06-25.40993 1.000E-05 16:27:04.940 1.500E-01 0.500 F 0.109 -0.031 +03° 28' 01.80" 1.000E-01 0.500 F 0.208 -0.351 o 691 0.74 Yes No
2019LX4 O C K 2019-06-26.22489 1.000E-05 14:58:09.970 1.500E-01 0.500 F -0.028 -0.105 -18° 12' 33.20" 1.000E-01 0.500 F 0.033 0.094 o 691 0.28 Yes No
2019LA6 O C K 2019-06-26.23198 1.000E-05 15:26:08.680 1.500E-01 0.500 F 0.141 0.456 -18° 41' 41.90" 1.000E-01 0.500 F -0.065 0.045 22.1 R 0.70 0.45 o 691 0.92 Yes Yes
2019LX4 O C K 2019-06-26.24930 1.000E-05 14:58:08.220 1.500E-01 0.500 F -0.028 -0.108 -18° 12' 10.20" 1.000E-01 0.500 F 0.033 0.402 o 691 0.84 Yes No
2019LA6 O C K 2019-06-26.25638 1.000E-05 15:26:08.020 1.500E-01 0.500 F 0.141 0.201 -18° 41' 20.90" 1.000E-01 0.500 F -0.065 -0.289 21.8 R 0.70 0.15 o 691 0.71 Yes Yes
2019LX4 O C K 2019-06-26.27369 1.000E-05 14:58:06.520 1.500E-01 0.500 F -0.028 0.249 -18° 11' 47.70" 1.000E-01 0.500 F 0.033 0.055 o 691 0.51 Yes No
2019LA6 O C K 2019-06-26.28079 1.000E-05 15:26:07.430 1.500E-01 0.500 F 0.141 0.625 -18° 40' 59.00" 1.000E-01 0.500 F -0.065 0.074 21.4 R 0.70 -0.25 o 691 1.26 Yes Yes
2019LF1 O C 2019-06-26.30819 1.000E-05 17:02:32.760 1.500E-01 0.500 F -0.018 0.024 -02° 35' 54.20" 1.000E-01 0.500 F 0.128 -0.143 20.7 V 0.70 -0.29 o 691 0.29 Yes Yes
2019LG5 O C K 2019-06-26.31319 1.000E-05 16:33:23.170 1.500E-01 0.500 F 0.073 -0.153 -02° 52' 05.90" 1.000E-01 0.500 F 0.140 -0.027 21.2 R 0.70 0.30 o 691 0.31 Yes Yes
2019LF1 O C 2019-06-26.32803 1.000E-05 17:02:32.820 1.500E-01 0.500 F -0.018 0.107 -02° 36' 41.50" 1.000E-01 0.500 F 0.128 -0.261 20.7 V 0.70 -0.29 o 691 0.57 Yes Yes
2019LG5 O C K 2019-06-26.33148 1.000E-05 16:33:21.820 1.500E-01 0.500 F 0.092 -0.234 -02° 52' 03.40" 1.000E-01 0.500 F 0.239 0.007 21.0 R 0.70 0.10 o 691 0.47 Yes Yes
2019LF1 O C 2019-06-26.34787 1.000E-05 17:02:32.860 1.500E-01 0.500 F -0.018 -0.283 -02° 37' 28.50" 1.000E-01 0.500 F 0.128 -0.068 21.2 V 0.70 0.21 o 691 0.59 Yes Yes
2019LG5 O C K 2019-06-26.34977 1.000E-05 16:33:20.480 1.500E-01 0.500 F 0.092 -0.244 -02° 52' 01.30" 1.000E-01 0.500 F 0.239 -0.259 20.3 R 0.70 -0.60 o 691 0.71 Yes Yes
2019LF5 O C K 2019-06-26.35697 1.000E-05 16:40:43.780 1.500E-01 0.500 F -0.151 0.174 -12° 42' 21.10" 1.000E-01 0.500 F 0.190 -0.329 20.1 R 0.70 -0.20 o 691 0.76 Yes Yes
2019LF5 O C K 2019-06-26.36059 1.000E-05 16:40:44.020 1.500E-01 0.500 F -0.151 0.060 -12° 42' 34.20" 1.000E-01 0.500 F 0.190 0.146 20.2 R 0.70 -0.10 o 691 0.32 Yes Yes
2015OL35 O C K 2019-06-26.39373 1.000E-05 21:48:12.640 1.500E-01 0.500 F -0.129 0.254 -12° 12' 30.20" 1.000E-01 0.500 F 0.189 -0.214 o 691 0.67 Yes No
2015OL35 O C K 2019-06-26.40857 1.000E-05 21:48:12.660 1.500E-01 0.500 F -0.129 0.550 -12° 12' 31.50" 1.000E-01 0.500 F 0.189 -0.693 o 691 1.77 Yes No
2019ME1 O C K 2019-06-27.17162 1.000E-05 16:22:58.950 1.500E-01 0.500 F 0.146 0.020 +25° 52' 22.70" 1.000E-01 0.500 F 0.328 0.099 20.3 R 0.70 0.43 o 691 0.21 Yes Yes
2019ME1 O C K 2019-06-27.17450 1.000E-05 16:22:58.430 1.500E-01 0.500 F 0.146 0.050 +25° 52' 34.70" 1.000E-01 0.500 F 0.328 -0.003 20.4 R 0.70 0.53 o 691 0.10 Yes Yes
2019ME1 O C K 2019-06-27.17737 1.000E-05 16:22:57.880 1.500E-01 0.500 F 0.146 -0.344 +25° 52' 46.90" 1.000E-01 0.500 F 0.328 0.140 20.5 R 0.70 0.63 o 691 0.75 Yes Yes
2019LA6 O C K 2019-06-27.18283 1.000E-05 15:25:58.320 1.500E-01 0.500 F 0.136 0.106 -18° 28' 20.90" 1.000E-01 0.500 F -0.059 0.372 o 691 0.78 Yes No
2019LA6 O C K 2019-06-27.19673 1.000E-05 15:25:58.010 1.500E-01 0.500 F 0.136 0.176 -18° 28' 10.00" 1.000E-01 0.500 F -0.059 -0.263 o 691 0.63 Yes No
2019LA6 O C K 2019-06-27.21063 1.000E-05 15:25:57.700 1.500E-01 0.500 F 0.136 0.223 -18° 27' 57.90" 1.000E-01 0.500 F -0.059 0.235 21.9 R 0.70 0.22 o 691 0.65 Yes Yes
2019LX4 O C K 2019-06-27.26211 1.000E-05 14:57:08.950 1.500E-01 0.500 F -0.028 -0.072 -17° 56' 54.90" 1.000E-01 0.500 F 0.033 0.313 21.8 R 0.70 1.28 o 691 0.64 Yes Yes
2019LX4 O C K 2019-06-27.26612 1.000E-05 14:57:08.690 1.500E-01 0.500 F -0.028 0.011 -17° 56' 51.50" 1.000E-01 0.500 F 0.033 -0.011 21.8 R 0.70 1.28 o 691 0.03 Yes Yes
2019LF5 O C K 2019-06-27.27807 1.000E-05 16:42:06.650 1.500E-01 0.500 F -0.107 0.160 -13° 42' 10.10" 1.000E-01 0.500 F 0.287 -0.313 20.4 R 0.70 0.15 o 691 0.71 Yes Yes
2019LF5 O C K 2019-06-27.28204 1.000E-05 16:42:06.920 1.500E-01 0.500 F -0.107 -0.003 -13° 42' 25.40" 1.000E-01 0.500 F 0.287 0.167 20.0 R 0.70 -0.25 o 691 0.34 Yes Yes
2019LF5 O C K 2019-06-27.28602 1.000E-05 16:42:07.180 1.500E-01 0.500 F -0.107 -0.333 -13° 42' 41.30" 1.000E-01 0.500 F 0.287 0.083 20.5 R 0.70 0.25 o 691 0.69 Yes Yes
2014AG5 O C K 2019-06-27.36767 1.000E-05 22:16:01.610 1.500E-01 0.500 F -0.184 0.050 -12° 04' 44.50" 1.000E-01 0.500 F 0.197 0.068 21.1 R 0.70 0.45 o 691 0.17 Yes Yes
2014AG5 O C K 2019-06-27.37329 1.000E-05 22:16:02.590 1.500E-01 0.500 F -0.184 -0.085 -12° 04' 56.40" 1.000E-01 0.500 F 0.197 0.125 20.8 R 0.70 0.16 o 691 0.31 Yes Yes
2014AG5 O C K 2019-06-27.37890 1.000E-05 22:16:03.530 1.500E-01 0.500 F -0.184 -0.752 -12° 05' 08.70" 1.000E-01 0.500 F 0.197 -0.245 21.8 R 0.70 1.16 o 691 1.60 Yes Yes
2019LE5 O C K 2019-06-27.38468 1.000E-05 21:45:15.350 1.500E-01 0.500 F -0.115 -0.220 -11° 21' 09.30" 1.000E-01 0.500 F 0.230 0.190 20.0 R 0.70 -0.38 o 691 0.59 Yes Yes
2019LE5 O C K 2019-06-27.38642 1.000E-05 21:45:15.670 1.500E-01 0.500 F -0.115 0.619 -11° 21' 07.00" 1.000E-01 0.500 F 0.230 0.021 19.6 R 0.70 -0.78 o 691 1.25 Yes Yes
2001YM4 O C K 2019-06-28.35366 1.000E-05 21:10:24.680 1.500E-01 0.500 F -0.031 0.084 -16° 43' 35.70" 1.000E-01 0.500 F 0.186 0.181 20.6 R 0.70 0.12 o 691 0.40 Yes Yes

[1-200] [201-400] [401-600] [601-800] [801-1000] [1001-1200] [1201-1400] [1401-1600] [1601-1800] [1801-2000] [2001-2200] [2201-2400] [2401-2600] [2601-2800] [2801-3000] [3001-3200] [3201-3400] [3401-3600] [3601-3800] [3801-4000] [4001-4200] [4201-4400] [4401-4600] [4601-4800] [4801-5000] [5001-5200] [5201-5400] [5401-5600] [5601-5800] [5801-6000] [6001-6200] [6201-6400] [6401-6600] [6601-6800] [6801-7000] [7001-7200] [7201-7400] [7401-7600] [7601-7800] [7801-8000] [8001-8200] [8201-8400] [8401-8600] [8601-8800] [8801-9000] [9001-9200] [9201-9400] [9401-9600] [9601-9800] [9801-10000] [10001-10200] [10201-10400] [10401-10600] [10601-10800] [10801-11000] [11001-11200] [11201-11400] [11401-11600] [11601-11800] [11801-12000] [12001-12200] [12201-12400] [12401-12600] [12601-12800] [12801-13000] [13001-13200] [13201-13400] [13401-13600] [13601-13800] [13801-14000] [14001-14200] [14201-14400] [14401-14600] [14601-14800] [14801-15000] [15001-15200] [15201-15400] [15401-15600] [15601-15800] [15801-16000] [16001-16200] [16201-16400] [16401-16600] [16601-16800] [16801-17000] [17001-17200] [17201-17400] [17401-17600] [17601-17800] [17801-18000] [18001-18200] [18201-18400] [18401-18600] [18601-18800] [18801-19000] [19001-19200] [19201-19400] [19401-19600] [19601-19800] [19801-20000] [20001-20200] [20201-20400] [20401-20600] [20601-20800] [20801-21000] [21001-21200] [21201-21400] [21401-21600] [21601-21800] [21801-22000] [22001-22200] [22201-22400] [22401-22600] [22601-22800] [22801-23000] [23001-23200] [23201-23400] [23401-23600] [23601-23800] [23801-24000] [24001-24200] [24201-24400] [24401-24600] [24601-24800] [24801-25000] [25001-25200] [25201-25400] [25401-25600] [25601-25800] [25801-26000] [26001-26200] [26201-26400] [26401-26600] [26601-26800] [26801-27000] [27001-27200] [27201-27400] [27401-27600] [27601-27800] [27801-28000] [28001-28200] [28201-28400] [28401-28600] [28601-28800] [28801-29000] [29001-29200] [29201-29400] [29401-29600] [29601-29800] [29801-30000] [30001-30200] [30201-30400] [30401-30600] [30601-30800] [30801-31000] [31001-31200] [31201-31400] [31401-31600] [31601-31800] [31801-32000] [32001-32200] [32201-32400] [32401-32600] [32601-32800] [32801-33000] [33001-33200] [33201-33400] [33401-33600] [33601-33800] [33801-34000] [34001-34200] [34201-34400] [34401-34600] [34601-34800] [34801-35000] [35001-35200] [35201-35400] [35401-35600] [35601-35800] [35801-36000] [36001-36200] [36201-36400] [36401-36600] [36601-36800] [36801-37000] [37001-37200] [37201-37400] [37401-37600] [37601-37800] [37801-38000] [38001-38200] [38201-38400] [38401-38600] [38601-38800] [38801-39000] [39001-39200] [39201-39400] [39401-39600] [39601-39800] [39801-40000] [40001-40200] [40201-40400] [40401-40600] [40601-40800] [40801-41000] [41001-41200] [41201-41400] [41401-41600] [41601-41800] [41801-42000] [42001-42200] [42201-42400] [42401-42600] [42601-42800] [42801-43000] [43001-43200] [43201-43400] [43401-43600] [43601-43800] [43801-44000] [44001-44200] [44201-44400] [44401-44600] [44601-44800] [44801-45000] [45001-45200] [45201-45400] [45401-45600] [45601-45800] [45801-46000] [46001-46200] [46201-46400] [46401-46600] [46601-46800] [46801-47000] [47001-47200] [47201-47400] [47401-47600] [47601-47800] [47801-48000] [48001-48200] [48201-48400] [48401-48600] [48601-48800] [48801-49000] [49001-49200] [49201-49400] [49401-49600] [49601-49800] [49801-50000] [50001-50200] [50201-50400] [50401-50600] [50601-50741]